sensor_id;sensor_type;location;lat;lon;timestamp;pressure;altitude;pressure_sealevel;temperature;humidity
26489;BME280;14169;43.684;10.484;2023-03-21T00:00:16;101854.56;;;10.75;100.00
26489;BME280;14169;43.684;10.484;2023-03-21T00:02:41;101858.09;;;10.73;100.00
26489;BME280;14169;43.684;10.484;2023-03-21T00:05:07;101858.09;;;10.73;100.00
26489;BME280;14169;43.684;10.484;2023-03-21T00:07:32;101856.34;;;10.73;100.00
26489;BME280;14169;43.684;10.484;2023-03-21T00:09:57;101857.22;;;10.72;100.00
26489;BME280;14169;43.684;10.484;2023-03-21T00:12:23;101858.97;;;10.70;100.00
26489;BME280;14169;43.684;10.484;2023-03-21T00:14:48;101853.75;;;10.72;100.00
26489;BME280;14169;43.684;10.484;2023-03-21T00:17:14;101852.94;;;10.68;100.00
26489;BME280;14169;43.684;10.484;2023-03-21T00:19:40;101846.00;;;10.66;100.00
26489;BME280;14169;43.684;10.484;2023-03-21T00:22:06;101836.47;;;10.65;100.00
26489;BME280;14169;43.684;10.484;2023-03-21T00:24:32;101844.31;;;10.65;100.00
26489;BME280;14169;43.684;10.484;2023-03-21T00:26:58;101842.59;;;10.62;100.00
26489;BME280;14169;43.684;10.484;2023-03-21T00:29:23;101833.91;;;10.62;100.00
26489;BME280;14169;43.684;10.484;2023-03-21T00:31:49;101840.00;;;10.62;100.00
26489;BME280;14169;43.684;10.484;2023-03-21T00:34:14;101838.28;;;10.60;100.00
26489;BME280;14169;43.684;10.484;2023-03-21T00:36:40;101845.25;;;10.58;100.00
26489;BME280;14169;43.684;10.484;2023-03-21T00:39:05;101834.00;;;10.54;100.00
26489;BME280;14169;43.684;10.484;2023-03-21T00:41:31;101830.50;;;10.54;100.00
26489;BME280;14169;43.684;10.484;2023-03-21T00:43:56;101835.94;;;10.42;100.00
26489;BME280;14169;43.684;10.484;2023-03-21T00:46:22;101832.50;;;10.37;100.00
26489;BME280;14169;43.684;10.484;2023-03-21T00:48:47;101833.41;;;10.34;100.00
26489;BME280;14169;43.684;10.484;2023-03-21T00:51:17;101829.97;;;10.31;100.00
26489;BME280;14169;43.684;10.484;2023-03-21T00:53:45;101824.81;;;10.29;100.00
26489;BME280;14169;43.684;10.484;2023-03-21T00:56:11;101820.53;;;10.24;100.00
26489;BME280;14169;43.684;10.484;2023-03-21T00:58:36;101821.50;;;10.17;100.00
26489;BME280;14169;43.684;10.484;2023-03-21T01:01:02;101811.97;;;10.14;100.00
26489;BME280;14169;43.684;10.484;2023-03-21T01:03:28;101816.34;;;10.10;100.00
26489;BME280;14169;43.684;10.484;2023-03-21T01:05:54;101806.00;;;10.07;100.00
26489;BME280;14169;43.684;10.484;2023-03-21T01:08:34;101809.44;;;10.09;100.00
26489;BME280;14169;43.684;10.484;2023-03-21T01:11:03;101799.91;;;10.07;100.00
26489;BME280;14169;43.684;10.484;2023-03-21T01:13:29;101800.81;;;10.04;100.00
26489;BME280;14169;43.684;10.484;2023-03-21T01:15:56;101804.31;;;10.02;100.00
26489;BME280;14169;43.684;10.484;2023-03-21T01:18:24;101799.13;;;10.00;100.00
26489;BME280;14169;43.684;10.484;2023-03-21T01:20:52;101793.97;;;9.96;100.00
26489;BME280;14169;43.684;10.484;2023-03-21T01:23:18;101788.78;;;9.94;100.00
26489;BME280;14169;43.684;10.484;2023-03-21T01:25:46;101796.63;;;9.93;100.00
26489;BME280;14169;43.684;10.484;2023-03-21T01:28:12;101794.94;;;9.89;100.00
26489;BME280;14169;43.684;10.484;2023-03-21T01:30:38;101782.81;;;9.86;100.00
26489;BME280;14169;43.684;10.484;2023-03-21T01:33:03;101787.19;;;9.84;100.00
26489;BME280;14169;43.684;10.484;2023-03-21T01:35:28;101792.41;;;9.83;100.00
26489;BME280;14169;43.684;10.484;2023-03-21T01:37:54;101791.59;;;9.79;100.00
26489;BME280;14169;43.684;10.484;2023-03-21T01:40:23;101790.78;;;9.73;100.00
26489;BME280;14169;43.684;10.484;2023-03-21T01:42:48;101789.94;;;9.71;100.00
26489;BME280;14169;43.684;10.484;2023-03-21T01:48:18;101777.00;;;9.66;100.00
26489;BME280;14169;43.684;10.484;2023-03-21T01:50:44;101771.84;;;9.63;100.00
26489;BME280;14169;43.684;10.484;2023-03-21T01:53:10;101776.19;;;9.61;100.00
26489;BME280;14169;43.684;10.484;2023-03-21T01:55:36;101778.03;;;9.53;100.00
26489;BME280;14169;43.684;10.484;2023-03-21T01:58:03;101776.28;;;9.52;100.00
26489;BME280;14169;43.684;10.484;2023-03-21T02:00:31;101774.59;;;9.48;100.00
26489;BME280;14169;43.684;10.484;2023-03-21T02:02:59;101772.91;;;9.46;100.00
26489;BME280;14169;43.684;10.484;2023-03-21T02:05:37;101777.28;;;9.41;100.00
26489;BME280;14169;43.684;10.484;2023-03-21T02:08:04;101774.72;;;9.36;100.00
26489;BME280;14169;43.684;10.484;2023-03-21T02:10:31;101770.41;;;9.35;100.00
26489;BME280;14169;43.684;10.484;2023-03-21T02:12:59;101775.66;;;9.31;100.00
26489;BME280;14169;43.684;10.484;2023-03-21T02:15:35;101773.06;;;9.29;100.00
26489;BME280;14169;43.684;10.484;2023-03-21T02:18:16;101766.16;;;9.27;100.00
26489;BME280;14169;43.684;10.484;2023-03-21T02:26:55;101765.53;;;9.00;100.00
26489;BME280;14169;43.684;10.484;2023-03-21T02:38:03;101765.59;;;8.93;100.00
26489;BME280;14169;43.684;10.484;2023-03-21T02:40:52;101767.31;;;8.95;100.00
26489;BME280;14169;43.684;10.484;2023-03-21T02:48:21;101769.84;;;8.98;100.00
26489;BME280;14169;43.684;10.484;2023-03-21T02:50:52;101763.81;;;8.98;100.00
26489;BME280;14169;43.684;10.484;2023-03-21T02:53:22;101763.81;;;8.98;100.00
26489;BME280;14169;43.684;10.484;2023-03-21T02:55:49;101762.94;;;8.97;100.00
26489;BME280;14169;43.684;10.484;2023-03-21T02:58:19;101751.75;;;8.91;100.00
26489;BME280;14169;43.684;10.484;2023-03-21T03:00:46;101759.50;;;8.95;100.00
26489;BME280;14169;43.684;10.484;2023-03-21T03:03:13;101757.75;;;8.97;100.00
26489;BME280;14169;43.684;10.484;2023-03-21T03:05:45;101758.63;;;8.98;100.00
26489;BME280;14169;43.684;10.484;2023-03-21T03:19:10;101744.81;;;8.88;100.00
26489;BME280;14169;43.684;10.484;2023-03-21T03:21:41;101740.53;;;8.86;100.00
26489;BME280;14169;43.684;10.484;2023-03-21T03:24:16;101744.84;;;8.87;100.00
26489;BME280;14169;43.684;10.484;2023-03-21T03:26:52;101744.88;;;8.84;100.00
26489;BME280;14169;43.684;10.484;2023-03-21T03:29:20;101742.34;;;8.78;100.00
26489;BME280;14169;43.684;10.484;2023-03-21T03:32:15;101741.53;;;8.68;100.00
26489;BME280;14169;43.684;10.484;2023-03-21T03:34:45;101733.81;;;8.61;100.00
26489;BME280;14169;43.684;10.484;2023-03-21T03:37:15;101739.06;;;8.55;100.00
26489;BME280;14169;43.684;10.484;2023-03-21T03:39:46;101736.44;;;8.55;100.00
26489;BME280;14169;43.684;10.484;2023-03-21T03:42:18;101732.16;;;8.54;100.00
26489;BME280;14169;43.684;10.484;2023-03-21T03:44:46;101733.84;;;8.55;100.00
26489;BME280;14169;43.684;10.484;2023-03-21T03:52:30;101732.81;;;8.75;100.00
26489;BME280;14169;43.684;10.484;2023-03-21T03:54:58;101739.75;;;8.75;100.00
26489;BME280;14169;43.684;10.484;2023-03-21T03:57:25;101736.31;;;8.73;100.00
26489;BME280;14169;43.684;10.484;2023-03-21T03:59:51;101745.88;;;8.69;100.00
26489;BME280;14169;43.684;10.484;2023-03-21T04:02:17;101746.72;;;8.68;100.00
26489;BME280;14169;43.684;10.484;2023-03-21T04:04:44;101747.63;;;8.64;100.00
26489;BME280;14169;43.684;10.484;2023-03-21T04:07:10;101746.81;;;8.56;100.00
26489;BME280;14169;43.684;10.484;2023-03-21T04:09:35;101741.66;;;8.55;100.00
26489;BME280;14169;43.684;10.484;2023-03-21T04:12:04;101741.69;;;8.52;100.00
26489;BME280;14169;43.684;10.484;2023-03-21T04:14:29;101741.69;;;8.49;100.00
26489;BME280;14169;43.684;10.484;2023-03-21T04:16:55;101741.72;;;8.46;100.00
26489;BME280;14169;43.684;10.484;2023-03-21T04:19:21;101746.09;;;8.42;100.00
26489;BME280;14169;43.684;10.484;2023-03-21T04:21:47;101742.66;;;8.37;100.00
26489;BME280;14169;43.684;10.484;2023-03-21T04:24:12;101746.16;;;8.30;100.00
26489;BME280;14169;43.684;10.484;2023-03-21T04:26:39;101740.16;;;8.23;100.00
26489;BME280;14169;43.684;10.484;2023-03-21T04:29:04;101733.22;;;8.22;100.00
26489;BME280;14169;43.684;10.484;2023-03-21T04:31:31;101741.84;;;8.29;100.00
26489;BME280;14169;43.684;10.484;2023-03-21T04:34:03;101734.94;;;8.28;100.00
26489;BME280;14169;43.684;10.484;2023-03-21T04:36:29;101733.22;;;8.25;100.00
26489;BME280;14169;43.684;10.484;2023-03-21T04:39:03;101731.50;;;8.21;100.00
26489;BME280;14169;43.684;10.484;2023-03-21T04:41:36;101741.88;;;8.21;100.00
26489;BME280;14169;43.684;10.484;2023-03-21T04:44:02;101735.84;;;8.19;100.00
26489;BME280;14169;43.684;10.484;2023-03-21T04:46:27;101738.44;;;8.19;100.00
26489;BME280;14169;43.684;10.484;2023-03-21T04:48:52;101740.16;;;8.19;100.00
26489;BME280;14169;43.684;10.484;2023-03-21T04:51:18;101737.59;;;8.16;100.00
26489;BME280;14169;43.684;10.484;2023-03-21T04:53:43;101735.88;;;8.15;100.00
26489;BME280;14169;43.684;10.484;2023-03-21T04:56:11;101730.69;;;8.10;100.00
26489;BME280;14169;43.684;10.484;2023-03-21T04:58:37;101733.31;;;8.04;100.00
26489;BME280;14169;43.684;10.484;2023-03-21T05:01:05;101730.75;;;8.06;100.00
26489;BME280;14169;43.684;10.484;2023-03-21T05:03:31;101739.41;;;8.02;100.00
26489;BME280;14169;43.684;10.484;2023-03-21T05:05:59;101738.50;;;8.04;100.00
26489;BME280;14169;43.684;10.484;2023-03-21T05:08:25;101744.59;;;8.03;100.00
26489;BME280;14169;43.684;10.484;2023-03-21T05:10:51;101742.00;;;8.03;100.00
26489;BME280;14169;43.684;10.484;2023-03-21T05:13:16;101747.16;;;8.06;100.00
26489;BME280;14169;43.684;10.484;2023-03-21T05:15:41;101735.91;;;8.04;100.00
26489;BME280;14169;43.684;10.484;2023-03-21T05:18:07;101742.00;;;8.03;100.00
26489;BME280;14169;43.684;10.484;2023-03-21T05:20:36;101750.69;;;7.98;100.00
26489;BME280;14169;43.684;10.484;2023-03-21T05:23:01;101745.47;;;7.99;100.00
26489;BME280;14169;43.684;10.484;2023-03-21T05:25:26;101762.75;;;8.03;100.00
26489;BME280;14169;43.684;10.484;2023-03-21T05:28:00;101751.50;;;8.06;100.00
26489;BME280;14169;43.684;10.484;2023-03-21T05:30:26;101754.94;;;8.08;100.00
26489;BME280;14169;43.684;10.484;2023-03-21T05:32:52;101758.41;;;8.10;100.00
26489;BME280;14169;43.684;10.484;2023-03-21T05:35:17;101760.09;;;8.12;100.00
26489;BME280;14169;43.684;10.484;2023-03-21T05:37:42;101760.09;;;8.14;100.00
26489;BME280;14169;43.684;10.484;2023-03-21T05:40:08;101759.25;;;8.13;100.00
26489;BME280;14169;43.684;10.484;2023-03-21T05:42:34;101757.50;;;8.11;100.00
26489;BME280;14169;43.684;10.484;2023-03-21T05:45:00;101760.09;;;8.12;100.00
26489;BME280;14169;43.684;10.484;2023-03-21T05:47:25;101756.63;;;8.15;100.00
26489;BME280;14169;43.684;10.484;2023-03-21T05:49:51;101760.09;;;8.15;100.00
26489;BME280;14169;43.684;10.484;2023-03-21T05:52:16;101759.22;;;8.15;100.00
26489;BME280;14169;43.684;10.484;2023-03-21T05:54:42;101764.41;;;8.15;100.00
26489;BME280;14169;43.684;10.484;2023-03-21T05:57:08;101759.19;;;8.21;100.00
26489;BME280;14169;43.684;10.484;2023-03-21T05:59:33;101760.03;;;8.26;100.00
26489;BME280;14169;43.684;10.484;2023-03-21T06:01:59;101763.44;;;8.32;100.00
26489;BME280;14169;43.684;10.484;2023-03-21T06:04:25;101766.03;;;8.32;100.00
26489;BME280;14169;43.684;10.484;2023-03-21T06:06:51;101759.94;;;8.36;100.00
26489;BME280;14169;43.684;10.484;2023-03-21T06:09:18;101764.28;;;8.37;100.00
26489;BME280;14169;43.684;10.484;2023-03-21T06:11:47;101766.84;;;8.40;100.00
26489;BME280;14169;43.684;10.484;2023-03-21T06:14:13;101772.88;;;8.46;100.00
26489;BME280;14169;43.684;10.484;2023-03-21T06:16:38;101775.41;;;8.55;100.00
26489;BME280;14169;43.684;10.484;2023-03-21T06:19:04;101787.47;;;8.65;100.00
26489;BME280;14169;43.684;10.484;2023-03-21T06:21:29;101785.72;;;8.67;100.00
26489;BME280;14169;43.684;10.484;2023-03-21T06:23:55;101786.50;;;8.75;100.00
26489;BME280;14169;43.684;10.484;2023-03-21T06:26:20;101790.84;;;8.77;100.00
26489;BME280;14169;43.684;10.484;2023-03-21T06:28:50;101786.50;;;8.79;100.00
26489;BME280;14169;43.684;10.484;2023-03-21T06:31:16;101797.75;;;8.80;100.00
26489;BME280;14169;43.684;10.484;2023-03-21T06:33:42;101797.72;;;8.83;100.00
26489;BME280;14169;43.684;10.484;2023-03-21T06:36:08;101798.50;;;8.92;100.00
26489;BME280;14169;43.684;10.484;2023-03-21T06:38:33;101810.66;;;8.92;100.00
26489;BME280;14169;43.684;10.484;2023-03-21T06:41:03;101800.22;;;8.95;100.00
26489;BME280;14169;43.684;10.484;2023-03-21T06:43:29;101814.00;;;9.09;100.00
26489;BME280;14169;43.684;10.484;2023-03-21T06:45:55;101805.28;;;9.14;100.00
26489;BME280;14169;43.684;10.484;2023-03-21T06:48:21;101804.34;;;9.23;100.00
26489;BME280;14169;43.684;10.484;2023-03-21T06:50:50;101796.47;;;9.29;100.00
26489;BME280;14169;43.684;10.484;2023-03-21T06:53:16;101793.75;;;9.38;100.00
26489;BME280;14169;43.684;10.484;2023-03-21T06:55:42;101792.78;;;9.48;100.00
26489;BME280;14169;43.684;10.484;2023-03-21T06:58:07;101798.78;;;9.56;100.00
26489;BME280;14169;43.684;10.484;2023-03-21T07:00:32;101796.19;;;9.58;100.00
26489;BME280;14169;43.684;10.484;2023-03-21T07:02:58;101798.72;;;9.64;100.00
26489;BME280;14169;43.684;10.484;2023-03-21T07:05:25;101800.44;;;9.65;100.00
26489;BME280;14169;43.684;10.484;2023-03-21T07:07:51;101791.69;;;9.70;100.00
26489;BME280;14169;43.684;10.484;2023-03-21T07:10:16;101796.81;;;9.79;100.00
26489;BME280;14169;43.684;10.484;2023-03-21T07:12:42;101795.75;;;9.92;100.00
26489;BME280;14169;43.684;10.484;2023-03-21T07:15:08;101801.72;;;10.00;100.00
26489;BME280;14169;43.684;10.484;2023-03-21T07:17:33;101804.13;;;10.17;100.00
26489;BME280;14169;43.684;10.484;2023-03-21T07:19:59;101801.38;;;10.29;100.00
26489;BME280;14169;43.684;10.484;2023-03-21T07:22:24;101801.22;;;10.40;100.00
26489;BME280;14169;43.684;10.484;2023-03-21T07:24:50;101803.72;;;10.47;100.00
26489;BME280;14169;43.684;10.484;2023-03-21T07:27:16;101797.53;;;10.57;100.00
26489;BME280;14169;43.684;10.484;2023-03-21T07:29:42;101796.47;;;10.69;100.00
26489;BME280;14169;43.684;10.484;2023-03-21T07:32:09;101790.16;;;10.82;100.00
26489;BME280;14169;43.684;10.484;2023-03-21T07:34:34;101796.00;;;10.96;100.00
26489;BME280;14169;43.684;10.484;2023-03-21T07:37:00;101793.97;;;11.15;100.00
26489;BME280;14169;43.684;10.484;2023-03-21T07:39:26;101793.72;;;11.28;100.00
26489;BME280;14169;43.684;10.484;2023-03-21T07:41:52;101792.59;;;11.43;100.00
26489;BME280;14169;43.684;10.484;2023-03-21T07:44:21;101787.03;;;11.61;100.00
26489;BME280;14169;43.684;10.484;2023-03-21T07:46:47;101790.19;;;11.76;100.00
26489;BME280;14169;43.684;10.484;2023-03-21T07:49:12;101795.81;;;12.00;100.00
26489;BME280;14169;43.684;10.484;2023-03-21T07:51:38;101803.31;;;12.16;100.00
26489;BME280;14169;43.684;10.484;2023-03-21T07:54:03;101791.72;;;12.28;100.00
26489;BME280;14169;43.684;10.484;2023-03-21T07:56:29;101796.59;;;12.44;100.00
26489;BME280;14169;43.684;10.484;2023-03-21T07:58:55;101798.75;;;12.64;100.00
26489;BME280;14169;43.684;10.484;2023-03-21T08:01:20;101798.16;;;12.88;100.00
26489;BME280;14169;43.684;10.484;2023-03-21T08:03:46;101793.41;;;13.04;100.00
26489;BME280;14169;43.684;10.484;2023-03-21T08:06:12;101787.09;;;13.12;100.00
26489;BME280;14169;43.684;10.484;2023-03-21T08:08:38;101804.09;;;13.30;100.00
26489;BME280;14169;43.684;10.484;2023-03-21T08:11:04;101794.81;;;13.51;100.00
26489;BME280;14169;43.684;10.484;2023-03-21T08:13:30;101797.00;;;13.67;100.00
26489;BME280;14169;43.684;10.484;2023-03-21T08:15:55;101803.53;;;13.82;100.00
26489;BME280;14169;43.684;10.484;2023-03-21T08:18:21;101809.00;;;14.05;100.00
26489;BME280;14169;43.684;10.484;2023-03-21T08:20:51;101809.97;;;14.30;100.00
26489;BME280;14169;43.684;10.484;2023-03-21T08:23:16;101810.16;;;14.53;100.00
26489;BME280;14169;43.684;10.484;2023-03-21T08:25:42;101816.84;;;14.63;100.00
26489;BME280;14169;43.684;10.484;2023-03-21T08:28:07;101823.22;;;14.82;100.00
26489;BME280;14169;43.684;10.484;2023-03-21T08:30:32;101823.59;;;14.98;100.00
26489;BME280;14169;43.684;10.484;2023-03-21T08:32:59;101829.19;;;15.13;100.00
26489;BME280;14169;43.684;10.484;2023-03-21T08:35:25;101829.38;;;15.34;100.00
26489;BME280;14169;43.684;10.484;2023-03-21T08:37:51;101828.13;;;15.45;100.00
26489;BME280;14169;43.684;10.484;2023-03-21T08:40:17;101836.03;;;15.70;100.00
26489;BME280;14169;43.684;10.484;2023-03-21T08:42:43;101835.94;;;15.96;100.00
26489;BME280;14169;43.684;10.484;2023-03-21T08:45:12;101833.75;;;16.07;100.00
26489;BME280;14169;43.684;10.484;2023-03-21T08:47:38;101840.72;;;16.31;100.00
26489;BME280;14169;43.684;10.484;2023-03-21T08:50:06;101838.84;;;16.35;100.00
26489;BME280;14169;43.684;10.484;2023-03-21T08:52:32;101836.41;;;16.53;100.00
26489;BME280;14169;43.684;10.484;2023-03-21T08:54:58;101839.72;;;16.80;100.00
26489;BME280;14169;43.684;10.484;2023-03-21T08:57:23;101842.97;;;16.87;100.00
26489;BME280;14169;43.684;10.484;2023-03-21T08:59:49;101834.47;;;16.80;100.00
26489;BME280;14169;43.684;10.484;2023-03-21T09:02:15;101835.41;;;16.99;100.00
26489;BME280;14169;43.684;10.484;2023-03-21T09:04:41;101825.00;;;17.18;100.00
26489;BME280;14169;43.684;10.484;2023-03-21T09:07:08;101827.69;;;17.38;100.00
26489;BME280;14169;43.684;10.484;2023-03-21T09:09:35;101819.69;;;17.59;100.00
26489;BME280;14169;43.684;10.484;2023-03-21T09:12:01;101813.97;;;17.70;100.00
26489;BME280;14169;43.684;10.484;2023-03-21T09:14:27;101816.28;;;17.96;100.00
26489;BME280;14169;43.684;10.484;2023-03-21T09:16:52;101806.59;;;18.15;100.00
26489;BME280;14169;43.684;10.484;2023-03-21T09:19:17;101806.66;;;18.34;100.00
26489;BME280;14169;43.684;10.484;2023-03-21T09:21:43;101812.53;;;18.58;100.00
26489;BME280;14169;43.684;10.484;2023-03-21T09:24:09;101816.97;;;18.57;100.00
26489;BME280;14169;43.684;10.484;2023-03-21T09:26:37;101820.09;;;18.46;100.00
26489;BME280;14169;43.684;10.484;2023-03-21T09:29:03;101815.69;;;18.47;100.00
26489;BME280;14169;43.684;10.484;2023-03-21T09:31:30;101815.41;;;18.53;100.00
26489;BME280;14169;43.684;10.484;2023-03-21T09:33:56;101805.69;;;18.53;100.00
26489;BME280;14169;43.684;10.484;2023-03-21T09:36:23;101811.75;;;18.74;100.00
26489;BME280;14169;43.684;10.484;2023-03-21T09:38:50;101813.91;;;18.83;100.00
26489;BME280;14169;43.684;10.484;2023-03-21T09:41:23;101813.66;;;18.71;100.00
26489;BME280;14169;43.684;10.484;2023-03-21T09:46:52;101812.16;;;19.01;100.00
26489;BME280;14169;43.684;10.484;2023-03-21T09:49:26;101804.34;;;19.33;100.00
26489;BME280;14169;43.684;10.484;2023-03-21T09:51:58;101808.44;;;19.56;100.00
26489;BME280;14169;43.684;10.484;2023-03-21T09:54:39;101810.38;;;19.70;100.00
26489;BME280;14169;43.684;10.484;2023-03-21T09:59:49;101813.03;;;19.70;100.00
26489;BME280;14169;43.684;10.484;2023-03-21T10:02:39;101816.72;;;19.50;100.00
26489;BME280;14169;43.684;10.484;2023-03-21T10:05:19;101803.16;;;19.89;100.00
26489;BME280;14169;43.684;10.484;2023-03-21T10:10:22;101804.81;;;20.55;100.00
26489;BME280;14169;43.684;10.484;2023-03-21T10:12:52;101805.03;;;20.97;100.00
26489;BME280;14169;43.684;10.484;2023-03-21T10:15:20;101804.06;;;21.28;100.00
26489;BME280;14169;43.684;10.484;2023-03-21T10:17:59;101794.34;;;21.43;100.00
26489;BME280;14169;43.684;10.484;2023-03-21T10:20:29;101794.59;;;21.24;100.00
26489;BME280;14169;43.684;10.484;2023-03-21T10:22:57;101798.41;;;21.04;100.00
26489;BME280;14169;43.684;10.484;2023-03-21T10:25:37;101797.78;;;21.15;100.00
26489;BME280;14169;43.684;10.484;2023-03-21T10:28:06;101800.91;;;21.08;100.00
26489;BME280;14169;43.684;10.484;2023-03-21T10:33:14;101795.75;;;20.75;100.00
26489;BME280;14169;43.684;10.484;2023-03-21T10:35:45;101793.63;;;21.11;100.00
26489;BME280;14169;43.684;10.484;2023-03-21T10:38:18;101787.59;;;21.53;100.00
26489;BME280;14169;43.684;10.484;2023-03-21T10:40:45;101782.84;;;21.58;100.00
26489;BME280;14169;43.684;10.484;2023-03-21T10:43:40;101793.78;;;21.38;100.00
26489;BME280;14169;43.684;10.484;2023-03-21T10:46:26;101786.38;;;21.29;100.00
26489;BME280;14169;43.684;10.484;2023-03-21T10:48:52;101786.09;;;21.33;100.00
26489;BME280;14169;43.684;10.484;2023-03-21T10:51:20;101783.56;;;21.32;100.00
26489;BME280;14169;43.684;10.484;2023-03-21T10:53:58;101792.16;;;21.93;100.00
26489;BME280;14169;43.684;10.484;2023-03-21T10:56:34;101782.09;;;21.84;100.00
26489;BME280;14169;43.684;10.484;2023-03-21T10:59:01;101788.06;;;22.02;100.00
26489;BME280;14169;43.684;10.484;2023-03-21T11:01:34;101778.13;;;21.91;100.00
26489;BME280;14169;43.684;10.484;2023-03-21T11:04:06;101781.53;;;21.79;100.00
26489;BME280;14169;43.684;10.484;2023-03-21T11:06:37;101785.69;;;21.83;100.00
26489;BME280;14169;43.684;10.484;2023-03-21T11:09:15;101779.31;;;22.28;100.00
26489;BME280;14169;43.684;10.484;2023-03-21T11:12:08;101777.53;;;22.28;100.00
26489;BME280;14169;43.684;10.484;2023-03-21T11:14:38;101776.59;;;22.56;100.00
26489;BME280;14169;43.684;10.484;2023-03-21T11:19:49;101775.75;;;23.34;100.00
26489;BME280;14169;43.684;10.484;2023-03-21T11:22:17;101774.16;;;23.44;97.81
26489;BME280;14169;43.684;10.484;2023-03-21T11:24:49;101772.13;;;23.22;96.28
26489;BME280;14169;43.684;10.484;2023-03-21T11:27:15;101764.59;;;23.29;100.00
26489;BME280;14169;43.684;10.484;2023-03-21T11:29:48;101771.59;;;23.17;100.00
26489;BME280;14169;43.684;10.484;2023-03-21T11:32:25;101761.00;;;22.37;100.00
26489;BME280;14169;43.684;10.484;2023-03-21T11:35:04;101761.56;;;21.73;100.00
26489;BME280;14169;43.684;10.484;2023-03-21T11:42:47;101751.63;;;22.18;100.00
26489;BME280;14169;43.684;10.484;2023-03-21T11:45:18;101746.88;;;22.63;100.00
26489;BME280;14169;43.684;10.484;2023-03-21T11:47:49;101740.16;;;22.58;100.00
26489;BME280;14169;43.684;10.484;2023-03-21T12:06:34;101699.56;;;23.08;100.00
26489;BME280;14169;43.684;10.484;2023-03-21T12:09:28;101705.53;;;23.24;100.00
26489;BME280;14169;43.684;10.484;2023-03-21T12:12:05;101694.47;;;23.68;100.00
26489;BME280;14169;43.684;10.484;2023-03-21T12:20:59;101688.19;;;23.69;93.16
26489;BME280;14169;43.684;10.484;2023-03-21T12:24:04;101674.22;;;22.90;96.11
26489;BME280;14169;43.684;10.484;2023-03-21T12:26:40;101674.16;;;22.52;99.76
26489;BME280;14169;43.684;10.484;2023-03-21T12:34:53;101662.00;;;23.37;99.69
26489;BME280;14169;43.684;10.484;2023-03-21T12:38:09;101649.31;;;23.53;96.00
26489;BME280;14169;43.684;10.484;2023-03-21T12:40:16;101650.06;;;23.81;93.86
26489;BME280;14169;43.684;10.484;2023-03-21T12:43:01;101635.78;;;24.05;91.18
26489;BME280;14169;43.684;10.484;2023-03-21T12:45:32;101631.41;;;24.28;91.08
26489;BME280;14169;43.684;10.484;2023-03-21T12:50:54;101640.91;;;24.32;81.97
26489;BME280;14169;43.684;10.484;2023-03-21T12:53:29;101645.06;;;24.00;83.21
26489;BME280;14169;43.684;10.484;2023-03-21T12:56:02;101636.75;;;23.81;85.43
26489;BME280;14169;43.684;10.484;2023-03-21T12:58:32;101623.16;;;24.20;84.78
26489;BME280;14169;43.684;10.484;2023-03-21T13:01:05;101631.25;;;24.42;79.56
26489;BME280;14169;43.684;10.484;2023-03-21T13:03:39;101630.00;;;24.11;82.45
26489;BME280;14169;43.684;10.484;2023-03-21T13:06:14;101624.41;;;24.62;81.91
26489;BME280;14169;43.684;10.484;2023-03-21T13:11:28;101621.63;;;24.28;80.83
26489;BME280;14169;43.684;10.484;2023-03-21T13:16:41;101614.34;;;24.54;78.44
26489;BME280;14169;43.684;10.484;2023-03-21T13:19:17;101616.53;;;24.02;82.69
26489;BME280;14169;43.684;10.484;2023-03-21T13:21:50;101617.41;;;23.53;85.60
26489;BME280;14169;43.684;10.484;2023-03-21T13:26:44;101625.81;;;23.47;90.55
26489;BME280;14169;43.684;10.484;2023-03-21T13:29:24;101611.59;;;23.85;89.25
26489;BME280;14169;43.684;10.484;2023-03-21T13:31:53;101609.22;;;24.16;92.36
26489;BME280;14169;43.684;10.484;2023-03-21T13:34:22;101614.28;;;24.32;85.46
26489;BME280;14169;43.684;10.484;2023-03-21T13:36:49;101617.69;;;24.21;86.33
26489;BME280;14169;43.684;10.484;2023-03-21T13:39:27;101612.75;;;23.93;86.46
26489;BME280;14169;43.684;10.484;2023-03-21T13:41:53;101608.69;;;24.11;91.85
26489;BME280;14169;43.684;10.484;2023-03-21T13:44:22;101611.31;;;24.24;88.02
26489;BME280;14169;43.684;10.484;2023-03-21T13:47:03;101603.94;;;23.80;85.86
26489;BME280;14169;43.684;10.484;2023-03-21T13:49:34;101600.72;;;23.88;87.31
26489;BME280;14169;43.684;10.484;2023-03-21T13:52:26;101602.88;;;24.06;86.53
26489;BME280;14169;43.684;10.484;2023-03-21T13:54:56;101600.81;;;24.79;82.08
26489;BME280;14169;43.684;10.484;2023-03-21T14:02:51;101597.06;;;25.81;74.88
26489;BME280;14169;43.684;10.484;2023-03-21T14:05:20;101607.56;;;25.18;74.19
26489;BME280;14169;43.684;10.484;2023-03-21T14:07:50;101598.69;;;25.40;81.06
26489;BME280;14169;43.684;10.484;2023-03-21T14:10:22;101594.47;;;25.15;75.15
26489;BME280;14169;43.684;10.484;2023-03-21T14:12:48;101590.47;;;25.43;77.05
26489;BME280;14169;43.684;10.484;2023-03-21T14:15:23;101592.69;;;24.70;79.51
26489;BME280;14169;43.684;10.484;2023-03-21T14:17:59;101593.44;;;24.13;80.80
26489;BME280;14169;43.684;10.484;2023-03-21T14:20:31;101597.28;;;23.49;87.43
26489;BME280;14169;43.684;10.484;2023-03-21T14:22:57;101601.25;;;23.44;86.42
26489;BME280;14169;43.684;10.484;2023-03-21T14:25:25;101592.41;;;23.92;88.57